createdAt,value
2019-02-06T00:03:40.556Z,3.10
2019-02-06T00:08:48.322Z,3.10
2019-02-06T00:13:54.768Z,2.90
2019-02-06T00:19:01.151Z,3.00
2019-02-06T00:24:07.503Z,2.90
2019-02-06T00:29:14.144Z,2.90
2019-02-06T00:34:20.514Z,2.80
2019-02-06T00:39:26.819Z,2.90
2019-02-06T00:44:33.191Z,2.90
2019-02-06T00:49:39.462Z,2.90
2019-02-06T00:54:46.165Z,2.80
2019-02-06T00:59:52.962Z,2.80
2019-02-06T01:04:59.265Z,2.90
2019-02-06T01:10:06.858Z,2.90
2019-02-06T01:15:13.589Z,2.90
2019-02-06T01:20:20.001Z,2.80
2019-02-06T01:25:27.392Z,2.70
2019-02-06T01:30:44.575Z,2.80
2019-02-06T01:35:50.862Z,2.80
2019-02-06T01:40:58.724Z,2.80
2019-02-06T01:46:05.593Z,2.70
2019-02-06T01:51:11.983Z,2.70
2019-02-06T01:56:20.694Z,2.70
2019-02-06T02:01:27.015Z,2.70
2019-02-06T02:06:33.312Z,2.70
2019-02-06T02:11:39.776Z,2.70
2019-02-06T02:16:46.184Z,2.70
2019-02-06T02:21:52.727Z,2.70
2019-02-06T02:27:00.650Z,2.70
2019-02-06T02:32:06.915Z,2.70
2019-02-06T02:37:14.528Z,2.70
2019-02-06T02:42:21.237Z,2.70
2019-02-06T02:47:27.636Z,2.70
2019-02-06T02:52:34.267Z,2.70
2019-02-06T02:57:40.929Z,2.70
2019-02-06T03:02:59.984Z,2.70
2019-02-06T03:08:06.296Z,2.70
2019-02-06T03:13:12.556Z,2.70
2019-02-06T03:18:18.872Z,2.60
2019-02-06T03:23:25.690Z,2.60
2019-02-06T03:28:31.971Z,2.70
2019-02-06T03:33:38.555Z,2.70
2019-02-06T03:38:45.110Z,2.80
2019-02-06T03:43:51.474Z,2.70
2019-02-06T03:48:57.768Z,2.70
2019-02-06T03:54:04.780Z,2.70
2019-02-06T03:59:11.104Z,2.70
2019-02-06T04:04:17.361Z,2.80
2019-02-06T04:09:23.788Z,2.80
2019-02-06T04:14:30.114Z,2.80
2019-02-06T04:19:36.474Z,2.90
2019-02-06T04:24:45.116Z,3.00
2019-02-06T04:29:51.513Z,3.00
2019-02-06T04:34:57.925Z,3.00
2019-02-06T04:40:05.083Z,2.90
2019-02-06T04:45:12.118Z,2.90
2019-02-06T04:50:18.733Z,2.90
2019-02-06T04:55:25.050Z,2.90
2019-02-06T05:00:31.342Z,3.00
2019-02-06T05:05:37.594Z,2.90
2019-02-06T05:10:45.532Z,2.90
2019-02-06T05:15:51.822Z,2.90
2019-02-06T05:20:58.289Z,2.90
2019-02-06T05:26:05.537Z,3.00
2019-02-06T05:31:12.263Z,3.00
2019-02-06T05:36:18.644Z,3.00
2019-02-06T05:41:24.973Z,3.00
2019-02-06T05:46:31.952Z,3.00
2019-02-06T05:51:38.264Z,3.00
2019-02-06T05:56:44.653Z,3.00
2019-02-06T06:01:51.257Z,3.00
2019-02-06T06:06:59.387Z,3.10
2019-02-06T06:12:05.717Z,3.10
2019-02-06T06:17:12.233Z,3.10
2019-02-06T06:22:18.926Z,3.00
2019-02-06T06:27:25.289Z,3.00
2019-02-06T06:32:32.098Z,3.00
2019-02-06T06:37:41.374Z,3.00
2019-02-06T06:42:46.718Z,3.00
2019-02-06T06:47:53.469Z,3.00
2019-02-06T06:52:59.806Z,2.90
2019-02-06T06:58:06.345Z,3.00
2019-02-06T07:03:12.705Z,3.00
2019-02-06T07:08:19.065Z,2.90
2019-02-06T07:13:25.361Z,2.90
2019-02-06T07:18:31.662Z,2.90
2019-02-06T07:23:37.969Z,2.80
2019-02-06T07:28:45.479Z,2.80
2019-02-06T07:33:51.935Z,2.70
2019-02-06T07:38:58.240Z,2.80
2019-02-06T07:44:05.703Z,2.80
2019-02-06T07:49:12.063Z,2.80
2019-02-06T07:54:18.277Z,2.90
2019-02-06T07:59:24.574Z,2.80
2019-02-06T08:04:30.876Z,2.90
2019-02-06T08:09:37.207Z,2.90
2019-02-06T08:14:43.579Z,3.00
2019-02-06T08:19:49.917Z,3.00
2019-02-06T08:24:56.327Z,3.20
2019-02-06T08:30:02.717Z,3.20
2019-02-06T08:35:09.809Z,3.30
2019-02-06T08:40:17.057Z,3.40
2019-02-06T08:45:23.829Z,3.50
2019-02-06T08:50:30.368Z,3.70
2019-02-06T08:55:36.663Z,3.80
2019-02-06T09:00:42.935Z,4.00
2019-02-06T09:05:49.509Z,4.10
2019-02-06T09:10:55.888Z,4.30
2019-02-06T09:16:02.155Z,4.30
2019-02-06T09:21:08.467Z,4.50
2019-02-06T09:26:14.795Z,4.50
2019-02-06T09:31:21.395Z,4.50
2019-02-06T09:36:27.739Z,4.60
2019-02-06T09:41:35.852Z,4.80
2019-02-06T09:46:42.177Z,5.00
2019-02-06T09:51:48.936Z,5.10
2019-02-06T09:56:55.767Z,5.20
2019-02-06T10:02:02.188Z,5.30
2019-02-06T10:07:08.579Z,5.40
2019-02-06T10:12:14.934Z,5.50
2019-02-06T10:17:22.274Z,5.60
2019-02-06T10:22:28.829Z,5.70
2019-02-06T10:27:35.679Z,6.00
2019-02-06T10:32:42.285Z,6.20
2019-02-06T10:37:49.619Z,6.30
2019-02-06T10:42:56.080Z,6.40
2019-02-06T10:48:02.352Z,6.60
2019-02-06T10:53:09.089Z,7.00
2019-02-06T10:58:15.479Z,7.00
2019-02-06T11:03:21.744Z,7.20
2019-02-06T11:08:28.076Z,7.10
2019-02-06T11:13:34.678Z,7.20
2019-02-06T11:18:40.963Z,7.20
2019-02-06T11:23:47.321Z,7.40
2019-02-06T11:28:53.886Z,7.50
2019-02-06T11:34:00.138Z,7.50
2019-02-06T11:39:15.965Z,7.60
2019-02-06T11:44:24.495Z,7.60
2019-02-06T11:49:37.357Z,7.80
2019-02-06T11:54:43.668Z,7.80
2019-02-06T11:59:52.947Z,7.90
2019-02-06T12:04:58.031Z,7.70
2019-02-06T12:10:10.060Z,7.70
2019-02-06T12:15:16.737Z,7.70
2019-02-06T12:20:23.293Z,7.80
2019-02-06T12:25:29.854Z,7.90
2019-02-06T12:30:36.805Z,7.90
2019-02-06T12:35:43.331Z,8.00
2019-02-06T12:40:49.903Z,8.10
2019-02-06T12:45:56.246Z,8.10
2019-02-06T12:51:02.590Z,8.10
2019-02-06T12:56:08.901Z,8.20
2019-02-06T13:01:15.224Z,8.20
2019-02-06T13:06:22.011Z,8.20
2019-02-06T13:11:28.400Z,8.10
2019-02-06T13:16:34.739Z,8.20
2019-02-06T13:21:42.572Z,8.20
2019-02-06T13:26:50.514Z,8.20
2019-02-06T13:31:57.256Z,8.30
2019-02-06T13:37:03.559Z,8.40
2019-02-06T13:42:09.867Z,8.40
2019-02-06T13:47:16.504Z,8.40
2019-02-06T13:52:22.815Z,8.50
2019-02-06T13:57:33.858Z,8.60
2019-02-06T14:02:38.499Z,8.60
2019-02-06T14:07:45.096Z,8.70
2019-02-06T14:12:53.224Z,8.70
2019-02-06T14:18:00.043Z,8.60
2019-02-06T14:23:12.203Z,8.60
2019-02-06T14:28:58.520Z,8.60
2019-02-06T14:34:42.411Z,8.50
2019-02-06T14:40:13.721Z,8.50
2019-02-06T14:45:52.712Z,8.40
2019-02-06T14:51:31.140Z,8.50
2019-02-06T14:57:03.899Z,8.50
2019-02-06T15:02:47.783Z,8.50
2019-02-06T15:08:10.557Z,8.60
2019-02-06T15:13:41.300Z,8.70
2019-02-06T15:19:24.427Z,8.70
2019-02-06T15:25:09.486Z,8.80
2019-02-06T15:30:58.877Z,8.80
2019-02-06T15:36:24.808Z,8.70
2019-02-06T15:41:53.478Z,8.70
2019-02-06T15:47:37.865Z,8.70
2019-02-06T15:53:27.811Z,8.70
2019-02-06T15:59:12.407Z,8.60
2019-02-06T16:05:17.902Z,8.60
2019-02-06T16:10:50.255Z,8.60
2019-02-06T16:16:16.127Z,8.60
2019-02-06T16:21:53.157Z,8.60
2019-02-06T16:27:33.175Z,8.70
2019-02-06T16:33:25.143Z,8.60
2019-02-06T16:38:47.565Z,8.60
2019-02-06T16:44:30.932Z,8.60
2019-02-06T16:50:24.260Z,8.60
2019-02-06T16:56:08.000Z,8.60
2019-02-06T17:01:38.420Z,8.70
2019-02-06T17:07:19.185Z,8.60
2019-02-06T17:13:02.507Z,8.70
2019-02-06T17:18:56.150Z,8.70
2019-02-06T17:24:55.482Z,8.60
2019-02-06T17:30:55.431Z,8.80
2019-02-06T17:36:31.373Z,8.70
2019-02-06T17:42:20.832Z,8.70
2019-02-06T17:48:17.334Z,8.70
2019-02-06T17:54:10.826Z,8.60
2019-02-06T17:59:17.236Z,8.60
2019-02-06T18:04:26.827Z,8.60
2019-02-06T18:09:33.528Z,8.50
2019-02-06T18:14:39.846Z,8.50
2019-02-06T18:19:47.322Z,8.50
2019-02-06T18:24:53.778Z,8.40
2019-02-06T18:30:00.238Z,8.40
2019-02-06T18:35:07.255Z,8.50
2019-02-06T18:40:13.950Z,8.40
2019-02-06T18:45:20.905Z,8.40
2019-02-06T18:50:28.079Z,8.30
2019-02-06T18:55:34.443Z,8.40
2019-02-06T19:00:41.052Z,8.20
2019-02-06T19:05:47.585Z,8.20
2019-02-06T19:10:53.895Z,8.20
2019-02-06T19:16:00.326Z,8.10
2019-02-06T19:21:07.047Z,8.20
2019-02-06T19:26:13.791Z,8.10
2019-02-06T19:31:20.148Z,8.10
2019-02-06T19:36:26.476Z,8.10
2019-02-06T19:41:32.847Z,8.10
2019-02-06T19:46:39.205Z,8.10
2019-02-06T19:51:45.863Z,8.00
2019-02-06T19:56:52.282Z,8.00
2019-02-06T20:01:58.673Z,7.90
2019-02-06T20:07:05.924Z,7.90
2019-02-06T20:12:12.214Z,7.80
2019-02-06T20:17:19.051Z,7.80
2019-02-06T20:22:25.410Z,7.80
2019-02-06T20:27:31.842Z,7.90
2019-02-06T20:32:38.229Z,7.90
2019-02-06T20:37:44.948Z,7.90
2019-02-06T20:42:51.616Z,7.90
2019-02-06T20:47:58.853Z,7.80
2019-02-06T20:53:06.451Z,7.80
2019-02-06T20:58:12.767Z,7.80
2019-02-06T21:03:19.106Z,7.80
2019-02-06T21:08:25.537Z,7.80
2019-02-06T21:13:33.699Z,7.80
2019-02-06T21:18:39.825Z,7.80
2019-02-06T21:23:46.245Z,7.70
2019-02-06T21:28:52.593Z,7.70
2019-02-06T21:33:58.896Z,7.80
2019-02-06T21:39:09.330Z,7.80
2019-02-06T21:44:15.895Z,7.80
2019-02-06T21:49:22.229Z,7.80
2019-02-06T21:54:28.548Z,7.80
2019-02-06T21:59:35.952Z,7.70
2019-02-06T22:04:42.818Z,7.70
2019-02-06T22:09:49.185Z,7.70
2019-02-06T22:14:55.705Z,7.80
2019-02-06T22:20:01.996Z,7.60
2019-02-06T22:25:08.562Z,7.70
2019-02-06T22:30:17.599Z,7.60
2019-02-06T22:35:24.297Z,7.60
2019-02-06T22:40:30.617Z,7.60
2019-02-06T22:45:38.010Z,7.60
2019-02-06T22:50:44.325Z,7.50
2019-02-06T22:55:50.649Z,7.60
2019-02-06T23:01:17.836Z,7.50
2019-02-06T23:06:24.197Z,7.40
2019-02-06T23:11:30.562Z,7.30
2019-02-06T23:16:36.875Z,7.30
2019-02-06T23:21:44.584Z,7.30
2019-02-06T23:26:51.115Z,7.20
2019-02-06T23:31:57.800Z,7.20
2019-02-06T23:37:04.307Z,7.10
2019-02-06T23:42:10.609Z,7.10
2019-02-06T23:47:16.991Z,7.10
2019-02-06T23:52:23.284Z,7.00
2019-02-06T23:57:29.814Z,7.00
